createdAt,value
2018-09-05T00:00:46.681Z,13.53
2018-09-05T00:03:15.702Z,12.73
2018-09-05T00:05:44.699Z,12.63
2018-09-05T00:08:13.654Z,14.17
2018-09-05T00:10:42.588Z,13.30
2018-09-05T00:13:12.318Z,12.43
2018-09-05T00:15:41.374Z,13.43
2018-09-05T00:18:10.624Z,11.90
2018-09-05T00:20:39.826Z,13.83
2018-09-05T00:23:09.742Z,12.07
2018-09-05T00:25:38.779Z,12.37
2018-09-05T00:28:07.878Z,12.67
2018-09-05T00:30:36.836Z,13.50
2018-09-05T00:33:05.920Z,11.37
2018-09-05T00:35:34.855Z,12.07
2018-09-05T00:38:04.799Z,12.47
2018-09-05T00:40:33.850Z,12.37
2018-09-05T00:43:02.914Z,11.93
2018-09-05T00:45:31.958Z,11.80
2018-09-05T00:48:01.098Z,11.70
2018-09-05T00:50:30.442Z,11.93
2018-09-05T00:52:59.503Z,11.37
2018-09-05T00:55:28.384Z,11.63
2018-09-05T00:57:57.582Z,11.90
2018-09-05T01:00:26.525Z,11.70
2018-09-05T01:02:55.830Z,12.17
2018-09-05T01:05:24.829Z,11.73
2018-09-05T01:07:53.827Z,11.07
2018-09-05T01:10:22.858Z,11.00
2018-09-05T01:12:52.274Z,10.80
2018-09-05T01:15:21.370Z,11.43
2018-09-05T01:17:50.710Z,11.80
2018-09-05T01:20:19.576Z,10.50
2018-09-05T01:22:48.589Z,12.27
2018-09-05T01:25:17.535Z,10.63
2018-09-05T01:27:46.404Z,10.80
2018-09-05T01:30:15.417Z,10.90
2018-09-05T01:32:44.441Z,10.53
2018-09-05T01:35:14.275Z,11.60
2018-09-05T01:37:43.335Z,10.73
2018-09-05T01:40:12.377Z,10.70
2018-09-05T01:42:42.026Z,10.60
2018-09-05T01:45:10.978Z,11.27
2018-09-05T01:47:39.971Z,10.00
2018-09-05T01:50:09.012Z,9.40
2018-09-05T01:52:38.056Z,10.33
2018-09-05T01:55:07.305Z,11.23
2018-09-05T01:57:36.279Z,9.30
2018-09-05T02:00:05.442Z,9.80
2018-09-05T02:02:34.996Z,10.10
2018-09-05T02:05:04.225Z,9.70
2018-09-05T02:07:33.292Z,10.97
2018-09-05T02:10:02.210Z,10.37
2018-09-05T02:12:31.128Z,9.93
2018-09-05T02:15:00.807Z,10.40
2018-09-05T02:17:29.805Z,10.20
2018-09-05T02:19:58.761Z,10.07
2018-09-05T02:22:27.626Z,10.63
2018-09-05T02:24:56.554Z,10.17
2018-09-05T02:27:25.609Z,9.70
2018-09-05T02:29:54.640Z,9.23
2018-09-05T02:32:23.533Z,9.80
2018-09-05T02:34:52.702Z,9.80
2018-09-05T02:37:21.960Z,9.80
2018-09-05T02:39:50.998Z,9.67
2018-09-05T02:42:20.344Z,9.67
2018-09-05T02:44:49.426Z,9.80
2018-09-05T02:47:18.848Z,10.13
2018-09-05T02:49:47.668Z,10.77
2018-09-05T02:52:16.667Z,9.97
2018-09-05T02:54:45.694Z,10.40
2018-09-05T02:57:14.674Z,9.17
2018-09-05T02:59:43.537Z,10.70
2018-09-05T03:02:13.129Z,10.47
2018-09-05T03:04:42.149Z,10.60
2018-09-05T03:07:11.214Z,10.90
2018-09-05T03:09:40.338Z,9.70
2018-09-05T03:12:09.452Z,9.87
2018-09-05T03:14:38.355Z,8.77
2018-09-05T03:17:07.426Z,8.80
2018-09-05T03:19:36.517Z,9.93
2018-09-05T03:22:05.478Z,10.33
2018-09-05T03:24:34.706Z,9.90
2018-09-05T03:27:04.339Z,10.27
2018-09-05T03:29:33.433Z,9.70
2018-09-05T03:32:02.287Z,10.60
2018-09-05T03:34:31.401Z,10.57
2018-09-05T03:37:00.518Z,10.70
2018-09-05T03:39:29.574Z,10.50
2018-09-05T03:41:58.486Z,11.00
2018-09-05T03:44:27.498Z,11.13
2018-09-05T03:46:56.510Z,10.70
2018-09-05T03:49:25.401Z,10.37
2018-09-05T03:51:54.892Z,10.63
2018-09-05T03:54:23.947Z,11.00
2018-09-05T03:56:52.934Z,10.93
2018-09-05T03:59:22.154Z,11.70
2018-09-05T04:01:51.050Z,12.03
2018-09-05T04:04:20.982Z,11.93
2018-09-05T04:06:49.869Z,11.83
2018-09-05T04:09:19.033Z,11.23
2018-09-05T04:11:48.175Z,11.60
2018-09-05T04:14:18.086Z,11.30
2018-09-05T04:16:47.070Z,12.50
2018-09-05T04:19:16.771Z,11.77
2018-09-05T04:21:45.778Z,12.63
2018-09-05T04:24:14.670Z,11.10
2018-09-05T04:26:43.794Z,11.93
2018-09-05T04:29:13.089Z,11.97
2018-09-05T04:31:42.230Z,12.70
2018-09-05T04:34:11.356Z,11.30
2018-09-05T04:36:40.461Z,11.57
2018-09-05T04:39:10.634Z,12.77
2018-09-05T04:41:39.527Z,12.33
2018-09-05T04:44:09.022Z,12.07
2018-09-05T04:46:38.346Z,12.23
2018-09-05T04:49:07.417Z,12.60
2018-09-05T04:51:36.557Z,13.00
2018-09-05T04:54:06.409Z,12.50
2018-09-05T04:56:35.381Z,12.80
2018-09-05T04:59:04.806Z,12.50
2018-09-05T05:01:34.594Z,14.50
2018-09-05T05:04:03.691Z,11.33
2018-09-05T05:06:32.849Z,12.70
2018-09-05T05:09:02.946Z,11.70
2018-09-05T05:11:31.899Z,12.30
2018-09-05T05:14:00.998Z,12.77
2018-09-05T05:16:30.035Z,12.10
2018-09-05T05:18:58.981Z,12.30
2018-09-05T05:21:28.038Z,12.53
2018-09-05T05:23:56.907Z,12.57
2018-09-05T05:26:25.755Z,13.60
2018-09-05T05:28:54.772Z,11.73
2018-09-05T05:31:23.715Z,12.70
2018-09-05T05:33:53.054Z,11.70
2018-09-05T05:36:22.911Z,13.60
2018-09-05T05:38:51.946Z,11.63
2018-09-05T05:41:21.009Z,13.90
2018-09-05T05:43:50.076Z,12.80
2018-09-05T05:46:19.140Z,11.93
2018-09-05T05:48:48.370Z,12.63
2018-09-05T05:51:17.433Z,12.17
2018-09-05T05:53:46.875Z,12.27
2018-09-05T05:56:15.733Z,13.10
2018-09-05T05:58:44.821Z,12.80
2018-09-05T06:01:14.376Z,12.27
2018-09-05T06:03:43.469Z,12.63
2018-09-05T06:06:12.554Z,12.90
2018-09-05T06:08:41.714Z,13.30
2018-09-05T06:11:10.809Z,12.93
2018-09-05T06:13:40.214Z,12.67
2018-09-05T06:16:09.123Z,13.50
2018-09-05T06:18:38.179Z,13.50
2018-09-05T06:21:07.455Z,11.40
2018-09-05T06:23:36.494Z,12.30
2018-09-05T06:26:05.986Z,12.50
2018-09-05T06:28:35.370Z,11.90
2018-09-05T06:31:04.467Z,12.53
2018-09-05T06:33:33.660Z,13.00
2018-09-05T06:36:03.282Z,12.73
2018-09-05T06:38:32.298Z,11.50
2018-09-05T06:41:01.948Z,10.80
2018-09-05T06:43:31.138Z,11.60
2018-09-05T06:46:00.142Z,12.60
2018-09-05T06:48:29.296Z,11.60
2018-09-05T06:51:03.384Z,10.63
2018-09-05T06:53:32.443Z,11.10
2018-09-05T06:56:01.758Z,11.70
2018-09-05T06:58:30.946Z,11.00
2018-09-05T07:01:00.555Z,11.90
2018-09-05T07:03:29.752Z,11.40
2018-09-05T07:05:58.994Z,12.27
2018-09-05T07:08:28.486Z,11.77
2018-09-05T07:10:57.444Z,12.50
2018-09-05T07:13:26.531Z,10.87
2018-09-05T07:15:56.114Z,10.80
2018-09-05T07:18:26.125Z,11.63
2018-09-05T07:21:05.686Z,10.63
2018-09-05T07:23:24.544Z,10.30
2018-09-05T07:25:53.544Z,10.57
2018-09-05T07:28:22.643Z,11.90
2018-09-05T07:30:51.551Z,11.00
2018-09-05T07:33:20.663Z,10.97
2018-09-05T07:35:56.135Z,11.27
2018-09-05T07:38:25.157Z,11.37
2018-09-05T07:40:54.257Z,10.60
2018-09-05T07:43:23.246Z,10.43
2018-09-05T07:45:52.299Z,11.13
2018-09-05T07:48:21.366Z,11.20
2018-09-05T07:50:50.367Z,11.43
2018-09-05T07:53:19.434Z,10.00
2018-09-05T07:55:48.552Z,11.50
2018-09-05T07:58:17.509Z,10.00
2018-09-05T08:00:46.546Z,10.50
2018-09-05T08:03:15.641Z,10.27
2018-09-05T08:05:44.766Z,10.20
2018-09-05T08:08:14.342Z,10.50
2018-09-05T08:10:47.163Z,9.53
2018-09-05T08:13:16.126Z,10.83
2018-09-05T08:15:44.998Z,11.70
2018-09-05T08:18:14.136Z,8.43
2018-09-05T08:20:43.841Z,9.10
2018-09-05T08:23:13.131Z,8.67
2018-09-05T08:25:42.518Z,9.07
2018-09-05T08:28:12.039Z,9.00
2018-09-05T08:30:40.973Z,10.77
2018-09-05T08:33:10.038Z,10.30
2018-09-05T08:35:39.226Z,9.60
2018-09-05T08:38:08.438Z,8.87
2018-09-05T08:40:37.963Z,8.90
2018-09-05T08:43:07.007Z,8.73
2018-09-05T08:45:36.277Z,11.10
2018-09-05T08:48:05.229Z,9.60
2018-09-05T08:50:34.145Z,8.43
2018-09-05T08:53:03.433Z,8.90
2018-09-05T08:55:32.380Z,10.33
2018-09-05T08:58:01.448Z,9.33
2018-09-05T09:00:30.783Z,8.73
2018-09-05T09:02:59.993Z,9.30
2018-09-05T09:05:29.177Z,8.93
2018-09-05T09:07:58.184Z,9.27
2018-09-05T09:10:27.689Z,8.53
2018-09-05T09:12:56.932Z,9.53
2018-09-05T09:15:26.050Z,12.80
2018-09-05T09:17:56.532Z,9.07
2018-09-05T09:20:25.465Z,9.67
2018-09-05T09:22:54.698Z,8.47
2018-09-05T09:25:23.616Z,8.30
2018-09-05T09:27:52.994Z,9.07
2018-09-05T09:30:22.279Z,9.20
2018-09-05T09:32:51.388Z,8.50
2018-09-05T09:35:20.854Z,9.07
2018-09-05T09:37:50.543Z,10.07
2018-09-05T09:40:19.885Z,11.07
2018-09-05T09:42:49.602Z,8.87
2018-09-05T09:45:18.630Z,8.57
2018-09-05T09:47:48.043Z,9.23
2018-09-05T09:50:17.177Z,8.70
2018-09-05T09:52:46.360Z,8.80
2018-09-05T09:55:15.427Z,9.10
2018-09-05T09:57:44.414Z,8.27
2018-09-05T10:00:13.989Z,6.60
2018-09-05T10:02:48.241Z,8.13
2018-09-05T10:05:23.056Z,9.30
2018-09-05T10:07:56.979Z,9.50
2018-09-05T10:10:31.031Z,8.43
2018-09-05T10:13:05.201Z,9.13
2018-09-05T10:15:39.399Z,7.43
2018-09-05T10:18:14.355Z,8.27
2018-09-05T10:20:43.577Z,6.30
2018-09-05T10:23:13.342Z,8.00
2018-09-05T10:25:42.147Z,8.13
2018-09-05T10:28:11.233Z,8.03
2018-09-05T10:30:40.178Z,8.43
2018-09-05T10:33:09.231Z,8.30
2018-09-05T10:35:38.229Z,7.50
2018-09-05T10:38:07.342Z,6.63
2018-09-05T10:40:36.277Z,8.30
2018-09-05T10:43:05.331Z,7.60
2018-09-05T10:45:34.267Z,7.83
2018-09-05T10:48:03.357Z,6.70
2018-09-05T10:50:32.746Z,6.70
2018-09-05T10:53:01.804Z,7.23
2018-09-05T10:55:31.229Z,7.37
2018-09-05T10:58:00.355Z,7.50
2018-09-05T11:00:29.583Z,7.07
2018-09-05T11:02:59.161Z,7.20
2018-09-05T11:05:28.302Z,6.87
2018-09-05T11:07:57.494Z,8.47
2018-09-05T11:10:26.464Z,7.30
2018-09-05T11:12:55.767Z,7.23
2018-09-05T11:15:24.855Z,7.67
2018-09-05T11:17:53.727Z,8.60
2018-09-05T11:20:22.750Z,7.23
2018-09-05T11:22:51.901Z,7.70
2018-09-05T11:25:20.888Z,7.80
2018-09-05T11:27:49.967Z,7.03
2018-09-05T11:30:19.160Z,7.40
2018-09-05T11:32:48.434Z,6.33
2018-09-05T11:35:17.467Z,4.60
2018-09-05T11:37:46.665Z,6.03
2018-09-05T11:40:15.875Z,6.17
2018-09-05T11:42:45.694Z,4.80
2018-09-05T11:45:14.624Z,5.13
2018-09-05T11:47:43.771Z,4.87
2018-09-05T11:50:12.931Z,5.67
2018-09-05T11:52:42.035Z,4.90
2018-09-05T11:55:11.584Z,5.03
2018-09-05T11:57:41.021Z,4.77
2018-09-05T12:00:10.380Z,5.13
2018-09-05T12:02:39.725Z,5.00
2018-09-05T12:05:09.510Z,4.80
2018-09-05T12:07:38.744Z,6.90
2018-09-05T12:10:08.201Z,5.40
2018-09-05T12:12:38.202Z,5.17
2018-09-05T12:15:07.411Z,4.73
2018-09-05T12:17:36.677Z,5.50
2018-09-05T12:20:06.339Z,4.87
2018-09-05T12:22:35.381Z,4.90
2018-09-05T12:25:04.573Z,5.10
2018-09-05T12:27:33.609Z,4.57
2018-09-05T12:30:03.145Z,5.03
2018-09-05T12:32:32.140Z,5.13
2018-09-05T12:35:01.135Z,5.00
2018-09-05T12:37:30.497Z,4.43
2018-09-05T12:39:59.614Z,5.37
2018-09-05T12:42:28.593Z,5.17
2018-09-05T12:44:57.752Z,4.90
2018-09-05T12:47:26.833Z,6.07
2018-09-05T12:50:26.678Z,5.27
2018-09-05T12:52:56.617Z,5.47
2018-09-05T12:55:26.761Z,4.80
2018-09-05T12:57:56.099Z,5.80
2018-09-05T13:00:25.199Z,5.70
2018-09-05T13:02:55.063Z,4.80
2018-09-05T13:05:25.486Z,5.47
2018-09-05T13:07:54.945Z,22.43
2018-09-05T13:10:24.172Z,12.70
2018-09-05T13:12:53.133Z,10.33
2018-09-05T13:15:22.071Z,11.10
2018-09-05T13:17:51.065Z,18.80
2018-09-05T13:20:20.284Z,10.13
2018-09-05T13:22:49.313Z,8.70
2018-09-05T13:25:18.652Z,11.30
2018-09-05T13:27:47.623Z,13.60
2018-09-05T13:30:17.653Z,7.07
2018-09-05T13:32:46.777Z,6.73
2018-09-05T13:35:15.923Z,7.00
2018-09-05T13:37:44.837Z,7.30
2018-09-05T13:40:14.493Z,6.40
2018-09-05T13:42:43.509Z,7.20
2018-09-05T13:45:12.578Z,5.83
2018-09-05T13:47:41.713Z,5.80
2018-09-05T13:50:10.884Z,7.63
2018-09-05T13:52:40.025Z,8.37
2018-09-05T13:55:09.414Z,5.53
2018-09-05T13:57:38.466Z,9.43
2018-09-05T14:00:07.591Z,6.83
2018-09-05T14:02:36.624Z,6.20
2018-09-05T14:05:05.732Z,5.37
2018-09-05T14:07:34.810Z,4.87
2018-09-05T14:10:03.989Z,5.70
2018-09-05T14:12:33.093Z,5.70
2018-09-05T14:15:02.085Z,5.20
2018-09-05T14:17:32.006Z,5.53
2018-09-05T14:20:01.070Z,4.90
2018-09-05T14:22:30.592Z,6.00
2018-09-05T14:24:59.842Z,4.80
2018-09-05T14:27:28.817Z,5.20
2018-09-05T14:29:58.025Z,4.80
2018-09-05T14:32:27.089Z,5.17
2018-09-05T14:34:56.776Z,5.97
2018-09-05T14:37:25.827Z,5.27
2018-09-05T14:39:54.996Z,5.70
2018-09-05T14:42:24.304Z,5.20
2018-09-05T14:44:53.730Z,4.70
2018-09-05T14:47:23.338Z,5.60
2018-09-05T14:49:52.651Z,4.73
2018-09-05T14:52:21.729Z,5.60
2018-09-05T14:54:50.662Z,6.07
2018-09-05T14:57:19.800Z,6.33
2018-09-05T14:59:48.838Z,5.73
2018-09-05T15:02:18.973Z,6.13
2018-09-05T15:04:48.043Z,6.20
2018-09-05T15:07:17.276Z,6.03
2018-09-05T15:09:46.191Z,5.03
2018-09-05T15:12:15.198Z,6.27
2018-09-05T15:14:44.510Z,5.77
2018-09-05T15:17:13.493Z,6.10
2018-09-05T15:19:42.400Z,5.93
2018-09-05T15:22:11.472Z,6.23
2018-09-05T15:24:40.710Z,5.40
2018-09-05T15:27:10.086Z,5.67
2018-09-05T15:29:38.966Z,5.80
2018-09-05T15:32:08.169Z,6.30
2018-09-05T15:34:37.263Z,6.07
2018-09-05T15:37:06.357Z,5.20
2018-09-05T15:39:35.490Z,5.57
2018-09-05T15:42:04.422Z,5.73
2018-09-05T15:44:34.310Z,5.67
2018-09-05T15:47:03.960Z,5.73
2018-09-05T15:49:33.072Z,6.20
2018-09-05T15:52:02.355Z,6.33
2018-09-05T15:54:31.460Z,6.27
2018-09-05T15:57:00.563Z,6.43
2018-09-05T15:59:29.672Z,6.23
2018-09-05T16:01:59.889Z,5.83
2018-09-05T16:04:29.208Z,5.90
2018-09-05T16:06:57.995Z,6.10
2018-09-05T16:09:27.050Z,5.63
2018-09-05T16:11:56.397Z,6.10
2018-09-05T16:14:25.566Z,5.87
2018-09-05T16:16:54.554Z,5.80
2018-09-05T16:19:23.721Z,6.50
2018-09-05T16:21:52.911Z,5.53
2018-09-05T16:24:22.305Z,6.20
2018-09-05T16:26:51.925Z,6.20
2018-09-05T16:29:21.118Z,5.83
2018-09-05T16:31:50.187Z,6.17
2018-09-05T16:34:19.520Z,6.57
2018-09-05T16:36:48.510Z,6.83
2018-09-05T16:39:17.708Z,5.93
2018-09-05T16:41:46.742Z,6.90
2018-09-05T16:44:15.867Z,6.70
2018-09-05T16:46:45.044Z,6.50
2018-09-05T16:49:14.600Z,6.40
2018-09-05T16:51:44.157Z,6.83
2018-09-05T16:54:13.557Z,7.00
2018-09-05T16:56:42.547Z,7.13
2018-09-05T16:59:11.665Z,6.27
2018-09-05T17:01:40.625Z,6.30
2018-09-05T17:04:09.593Z,6.93
2018-09-05T17:06:38.582Z,6.60
2018-09-05T17:09:09.941Z,6.70
2018-09-05T17:11:39.300Z,7.27
2018-09-05T17:14:08.255Z,7.33
2018-09-05T17:16:38.075Z,6.87
2018-09-05T17:19:07.877Z,7.17
2018-09-05T17:21:36.912Z,7.20
2018-09-05T17:24:06.697Z,7.30
2018-09-05T17:26:35.802Z,6.50
2018-09-05T17:29:05.472Z,7.90
2018-09-05T17:31:34.696Z,7.57
2018-09-05T17:34:04.127Z,6.63
2018-09-05T17:36:33.269Z,7.03
2018-09-05T17:39:02.632Z,7.17
2018-09-05T17:41:31.609Z,7.83
2018-09-05T17:44:00.485Z,8.33
2018-09-05T17:46:29.582Z,8.10
2018-09-05T17:48:59.297Z,8.33
2018-09-05T17:51:28.751Z,7.30
2018-09-05T17:53:57.903Z,8.07
2018-09-05T17:56:26.857Z,7.30
2018-09-05T17:58:55.964Z,7.67
2018-09-05T18:01:25.755Z,6.87
2018-09-05T18:03:54.917Z,7.60
2018-09-05T18:06:24.517Z,7.87
2018-09-05T18:08:53.491Z,8.40
2018-09-05T18:11:22.888Z,8.53
2018-09-05T18:13:51.942Z,8.97
2018-09-05T18:16:21.144Z,8.70
2018-09-05T18:18:50.431Z,8.63
2018-09-05T18:21:19.651Z,9.00
2018-09-05T18:23:49.109Z,8.70
2018-09-05T18:26:18.427Z,8.60
2018-09-05T18:28:47.462Z,9.37
2018-09-05T18:31:16.756Z,8.60
2018-09-05T18:33:45.918Z,9.40
2018-09-05T18:36:15.081Z,9.73
2018-09-05T18:38:44.577Z,9.83
2018-09-05T18:41:13.705Z,8.70
2018-09-05T18:43:42.807Z,9.60
2018-09-05T18:46:12.246Z,8.60
2018-09-05T18:48:41.320Z,8.67
2018-09-05T18:51:10.303Z,9.50
2018-09-05T18:53:39.407Z,10.17
2018-09-05T18:56:08.686Z,9.97
2018-09-05T18:58:37.693Z,9.10
2018-09-05T19:01:06.707Z,10.30
2018-09-05T19:03:35.969Z,9.80
2018-09-05T19:06:04.914Z,10.00
2018-09-05T19:08:34.101Z,8.73
2018-09-05T19:11:03.683Z,10.13
2018-09-05T19:13:32.874Z,9.53
2018-09-05T19:16:01.954Z,9.90
2018-09-05T19:18:31.961Z,10.43
2018-09-05T19:21:01.299Z,10.53
2018-09-05T19:23:30.402Z,10.00
2018-09-05T19:25:59.741Z,11.10
2018-09-05T19:28:29.139Z,10.33
2018-09-05T19:30:58.993Z,10.20
2018-09-05T19:33:28.083Z,9.90
2018-09-05T19:35:57.518Z,10.30
2018-09-05T19:38:26.581Z,9.97
2018-09-05T19:40:55.736Z,10.70
2018-09-05T19:43:24.714Z,10.67
2018-09-05T19:45:53.670Z,10.33
2018-09-05T19:48:22.506Z,9.70
2018-09-05T19:50:51.718Z,11.20
2018-09-05T19:53:21.409Z,10.60
2018-09-05T19:55:50.603Z,11.47
2018-09-05T19:58:19.722Z,10.43
2018-09-05T20:00:48.739Z,11.00
2018-09-05T20:03:17.712Z,11.70
2018-09-05T20:05:46.691Z,11.23
2018-09-05T20:08:16.669Z,10.87
2018-09-05T20:10:46.235Z,10.70
2018-09-05T20:13:15.326Z,11.20
2018-09-05T20:15:44.402Z,10.47
2018-09-05T20:18:13.620Z,10.47
2018-09-05T20:20:42.609Z,10.00
2018-09-05T20:23:11.717Z,10.73
2018-09-05T20:25:40.813Z,11.40
2018-09-05T20:28:09.839Z,10.70
2018-09-05T20:30:39.270Z,10.80
2018-09-05T20:33:08.680Z,11.07
2018-09-05T20:35:38.404Z,11.83
2018-09-05T20:38:07.282Z,11.00
2018-09-05T20:40:36.365Z,10.97
2018-09-05T20:43:05.463Z,11.53
2018-09-05T20:45:34.604Z,10.97
2018-09-05T20:48:04.212Z,10.50
2018-09-05T20:50:33.358Z,10.50
2018-09-05T20:53:02.366Z,10.57
2018-09-05T20:55:31.330Z,10.73
2018-09-05T20:58:00.688Z,11.00
2018-09-05T21:00:29.654Z,10.20
2018-09-05T21:02:58.657Z,10.80
2018-09-05T21:05:28.139Z,11.40
2018-09-05T21:07:57.165Z,11.50
2018-09-05T21:10:26.244Z,9.90
2018-09-05T21:12:55.256Z,10.13
2018-09-05T21:15:27.116Z,10.53
2018-09-05T21:17:55.990Z,11.53
2018-09-05T21:20:25.192Z,10.37
2018-09-05T21:22:54.096Z,10.97
2018-09-05T21:25:23.073Z,10.70
2018-09-05T21:27:52.165Z,10.70
2018-09-05T21:30:21.459Z,10.67
2018-09-05T21:32:50.561Z,10.80
2018-09-05T21:35:19.474Z,11.33
2018-09-05T21:37:48.583Z,11.20
2018-09-05T21:40:17.607Z,10.80
2018-09-05T21:42:46.618Z,10.10
2018-09-05T21:45:16.271Z,10.97
2018-09-05T21:47:45.501Z,11.80
2018-09-05T21:50:14.738Z,10.10
2018-09-05T21:52:44.086Z,11.10
2018-09-05T21:55:13.531Z,11.07
2018-09-05T21:57:42.714Z,11.03
2018-09-05T22:00:12.355Z,11.20
2018-09-05T22:02:41.722Z,10.20
2018-09-05T22:05:10.774Z,10.80
2018-09-05T22:07:40.159Z,11.30
2018-09-05T22:10:09.495Z,11.63
2018-09-05T22:12:38.408Z,10.30
2018-09-05T22:15:07.958Z,11.43
2018-09-05T22:17:37.103Z,10.40
2018-09-05T22:20:06.253Z,9.93
2018-09-05T22:22:35.377Z,9.90
2018-09-05T22:25:04.508Z,10.20
2018-09-05T22:27:33.829Z,10.30
2018-09-05T22:30:02.901Z,10.50
2018-09-05T22:32:31.853Z,10.30
2018-09-05T22:35:00.834Z,10.00
2018-09-05T22:37:29.815Z,11.27
2018-09-05T22:39:58.827Z,10.13
2018-09-05T22:42:27.811Z,10.60
2018-09-05T22:45:07.921Z,10.67
2018-09-05T22:48:46.640Z,10.00
2018-09-05T22:51:33.222Z,10.30
2018-09-05T22:54:16.902Z,10.50
2018-09-05T22:58:05.408Z,10.30
2018-09-05T23:02:49.567Z,10.13
2018-09-05T23:08:48.391Z,10.53
2018-09-05T23:11:59.473Z,10.70
2018-09-05T23:14:40.445Z,10.10
2018-09-05T23:17:21.046Z,9.80
2018-09-05T23:21:00.119Z,9.73
2018-09-05T23:23:40.676Z,10.40
2018-09-05T23:26:09.865Z,11.33
2018-09-05T23:28:39.490Z,10.40
2018-09-05T23:31:08.633Z,10.87
2018-09-05T23:33:38.462Z,10.60
2018-09-05T23:36:08.089Z,9.43
2018-09-05T23:38:37.694Z,11.33
2018-09-05T23:41:07.373Z,11.00
2018-09-05T23:43:36.468Z,10.60
2018-09-05T23:46:05.446Z,10.47
2018-09-05T23:48:34.462Z,9.80
2018-09-05T23:51:03.636Z,8.70
2018-09-05T23:53:33.414Z,9.93
2018-09-05T23:56:02.417Z,10.13
2018-09-05T23:58:32.204Z,10.27
